sensor_id;sensor_type;location;lat;lon;timestamp;P1;durP1;ratioP1;P2;durP2;ratioP2
72319;SDS011;60269;52.502;16.732;2024-01-15T00:00:52;12.27;;;4.60;;
72319;SDS011;60269;52.502;16.732;2024-01-15T00:04:44;14.73;;;5.22;;
72319;SDS011;60269;52.502;16.732;2024-01-15T00:08:16;13.93;;;4.77;;
72319;SDS011;60269;52.502;16.732;2024-01-15T00:11:48;17.52;;;5.32;;
72319;SDS011;60269;52.502;16.732;2024-01-15T00:15:20;13.25;;;4.38;;
72319;SDS011;60269;52.502;16.732;2024-01-15T00:18:52;13.15;;;4.60;;
72319;SDS011;60269;52.502;16.732;2024-01-15T00:22:25;15.10;;;5.30;;
72319;SDS011;60269;52.502;16.732;2024-01-15T00:25:58;17.60;;;5.50;;
72319;SDS011;60269;52.502;16.732;2024-01-15T00:29:30;12.00;;;3.88;;
72319;SDS011;60269;52.502;16.732;2024-01-15T00:33:02;17.00;;;5.00;;
72319;SDS011;60269;52.502;16.732;2024-01-15T00:36:34;20.23;;;6.20;;
72319;SDS011;60269;52.502;16.732;2024-01-15T00:40:06;12.13;;;3.78;;
72319;SDS011;60269;52.502;16.732;2024-01-15T00:43:39;14.97;;;5.30;;
72319;SDS011;60269;52.502;16.732;2024-01-15T00:47:12;18.00;;;6.63;;
72319;SDS011;60269;52.502;16.732;2024-01-15T00:50:44;19.95;;;6.53;;
72319;SDS011;60269;52.502;16.732;2024-01-15T00:54:16;13.40;;;4.75;;
72319;SDS011;60269;52.502;16.732;2024-01-15T00:57:48;14.93;;;5.40;;
72319;SDS011;60269;52.502;16.732;2024-01-15T01:01:20;18.38;;;6.53;;
72319;SDS011;60269;52.502;16.732;2024-01-15T01:04:52;15.55;;;4.70;;
72319;SDS011;60269;52.502;16.732;2024-01-15T01:08:25;19.97;;;7.00;;
72319;SDS011;60269;52.502;16.732;2024-01-15T01:11:57;17.95;;;6.68;;
72319;SDS011;60269;52.502;16.732;2024-01-15T01:15:29;19.15;;;5.38;;
72319;SDS011;60269;52.502;16.732;2024-01-15T01:19:01;15.77;;;5.37;;
72319;SDS011;60269;52.502;16.732;2024-01-15T01:22:33;17.33;;;6.50;;
72319;SDS011;60269;52.502;16.732;2024-01-15T01:26:05;14.23;;;4.78;;
72319;SDS011;60269;52.502;16.732;2024-01-15T01:29:38;18.45;;;6.43;;
72319;SDS011;60269;52.502;16.732;2024-01-15T01:33:10;18.37;;;6.30;;
72319;SDS011;60269;52.502;16.732;2024-01-15T01:36:42;12.70;;;3.90;;
72319;SDS011;60269;52.502;16.732;2024-01-15T01:40:15;12.93;;;4.80;;
72319;SDS011;60269;52.502;16.732;2024-01-15T01:43:47;16.00;;;5.03;;
72319;SDS011;60269;52.502;16.732;2024-01-15T01:47:19;18.63;;;6.07;;
72319;SDS011;60269;52.502;16.732;2024-01-15T01:50:55;16.95;;;5.70;;
72319;SDS011;60269;52.502;16.732;2024-01-15T01:54:31;13.13;;;4.80;;
72319;SDS011;60269;52.502;16.732;2024-01-15T01:58:04;11.00;;;3.95;;
72319;SDS011;60269;52.502;16.732;2024-01-15T02:01:36;16.88;;;4.65;;
72319;SDS011;60269;52.502;16.732;2024-01-15T02:05:08;13.15;;;3.78;;
72319;SDS011;60269;52.502;16.732;2024-01-15T02:08:42;12.33;;;3.93;;
72319;SDS011;60269;52.502;16.732;2024-01-15T02:12:15;15.32;;;5.18;;
72319;SDS011;60269;52.502;16.732;2024-01-15T02:15:47;14.05;;;4.95;;
72319;SDS011;60269;52.502;16.732;2024-01-15T02:19:19;18.37;;;5.87;;
72319;SDS011;60269;52.502;16.732;2024-01-15T02:22:52;17.98;;;4.70;;
72319;SDS011;60269;52.502;16.732;2024-01-15T02:26:24;19.48;;;5.70;;
72319;SDS011;60269;52.502;16.732;2024-01-15T02:29:56;11.73;;;3.93;;
72319;SDS011;60269;52.502;16.732;2024-01-15T02:33:29;7.85;;;2.47;;
72319;SDS011;60269;52.502;16.732;2024-01-15T02:37:01;12.82;;;5.38;;
72319;SDS011;60269;52.502;16.732;2024-01-15T02:40:33;12.90;;;3.88;;
72319;SDS011;60269;52.502;16.732;2024-01-15T02:44:05;9.73;;;3.00;;
72319;SDS011;60269;52.502;16.732;2024-01-15T02:47:37;14.40;;;4.45;;
72319;SDS011;60269;52.502;16.732;2024-01-15T02:51:09;13.02;;;4.95;;
72319;SDS011;60269;52.502;16.732;2024-01-15T02:54:41;12.47;;;3.70;;
72319;SDS011;60269;52.502;16.732;2024-01-15T02:58:14;13.25;;;5.05;;
72319;SDS011;60269;52.502;16.732;2024-01-15T03:01:46;10.05;;;3.65;;
72319;SDS011;60269;52.502;16.732;2024-01-15T03:05:18;14.50;;;4.70;;
72319;SDS011;60269;52.502;16.732;2024-01-15T03:08:52;17.70;;;4.80;;
72319;SDS011;60269;52.502;16.732;2024-01-15T03:12:24;17.77;;;5.60;;
72319;SDS011;60269;52.502;16.732;2024-01-15T03:15:56;11.75;;;3.63;;
72319;SDS011;60269;52.502;16.732;2024-01-15T03:19:28;15.73;;;5.03;;
72319;SDS011;60269;52.502;16.732;2024-01-15T03:23:02;14.45;;;5.35;;
72319;SDS011;60269;52.502;16.732;2024-01-15T03:26:34;15.07;;;4.80;;
72319;SDS011;60269;52.502;16.732;2024-01-15T03:30:07;15.50;;;4.07;;
72319;SDS011;60269;52.502;16.732;2024-01-15T03:33:39;20.13;;;5.20;;
72319;SDS011;60269;52.502;16.732;2024-01-15T03:37:11;13.90;;;5.18;;
72319;SDS011;60269;52.502;16.732;2024-01-15T03:40:44;14.40;;;4.33;;
72319;SDS011;60269;52.502;16.732;2024-01-15T03:44:16;13.20;;;4.18;;
72319;SDS011;60269;52.502;16.732;2024-01-15T03:47:48;15.98;;;4.50;;
72319;SDS011;60269;52.502;16.732;2024-01-15T03:51:20;17.88;;;4.72;;
72319;SDS011;60269;52.502;16.732;2024-01-15T03:54:53;16.40;;;4.73;;
72319;SDS011;60269;52.502;16.732;2024-01-15T03:58:25;15.52;;;4.55;;
72319;SDS011;60269;52.502;16.732;2024-01-15T04:01:57;14.00;;;3.58;;
72319;SDS011;60269;52.502;16.732;2024-01-15T04:05:29;15.90;;;4.00;;
72319;SDS011;60269;52.502;16.732;2024-01-15T04:09:01;13.73;;;4.07;;
72319;SDS011;60269;52.502;16.732;2024-01-15T04:12:34;11.68;;;4.10;;
72319;SDS011;60269;52.502;16.732;2024-01-15T04:16:06;13.10;;;3.90;;
72319;SDS011;60269;52.502;16.732;2024-01-15T04:19:38;11.15;;;3.33;;
72319;SDS011;60269;52.502;16.732;2024-01-15T04:23:11;9.27;;;2.72;;
72319;SDS011;60269;52.502;16.732;2024-01-15T04:26:43;10.43;;;3.35;;
72319;SDS011;60269;52.502;16.732;2024-01-15T04:30:15;7.27;;;2.20;;
72319;SDS011;60269;52.502;16.732;2024-01-15T04:33:48;8.85;;;2.47;;
72319;SDS011;60269;52.502;16.732;2024-01-15T04:37:20;14.23;;;4.07;;
72319;SDS011;60269;52.502;16.732;2024-01-15T04:40:52;12.93;;;2.90;;
72319;SDS011;60269;52.502;16.732;2024-01-15T04:44:29;8.05;;;2.58;;
72319;SDS011;60269;52.502;16.732;2024-01-15T04:48:01;10.00;;;1.50;;
72319;SDS011;60269;52.502;16.732;2024-01-15T04:51:34;8.97;;;2.43;;
72319;SDS011;60269;52.502;16.732;2024-01-15T04:55:06;6.43;;;1.50;;
72319;SDS011;60269;52.502;16.732;2024-01-15T04:58:38;6.30;;;1.65;;
72319;SDS011;60269;52.502;16.732;2024-01-15T05:02:10;8.50;;;1.48;;
72319;SDS011;60269;52.502;16.732;2024-01-15T05:05:42;6.57;;;1.63;;
72319;SDS011;60269;52.502;16.732;2024-01-15T05:09:14;5.72;;;1.60;;
72319;SDS011;60269;52.502;16.732;2024-01-15T05:12:47;7.63;;;1.70;;
72319;SDS011;60269;52.502;16.732;2024-01-15T05:16:19;10.00;;;1.87;;
72319;SDS011;60269;52.502;16.732;2024-01-15T05:19:51;13.60;;;1.80;;
72319;SDS011;60269;52.502;16.732;2024-01-15T05:23:23;7.65;;;1.52;;
72319;SDS011;60269;52.502;16.732;2024-01-15T05:26:55;5.00;;;0.73;;
72319;SDS011;60269;52.502;16.732;2024-01-15T05:30:27;10.75;;;1.88;;
72319;SDS011;60269;52.502;16.732;2024-01-15T05:34:00;8.52;;;2.08;;
72319;SDS011;60269;52.502;16.732;2024-01-15T05:37:32;6.68;;;1.30;;
72319;SDS011;60269;52.502;16.732;2024-01-15T05:41:04;3.10;;;1.00;;
72319;SDS011;60269;52.502;16.732;2024-01-15T05:44:36;7.50;;;1.60;;
72319;SDS011;60269;52.502;16.732;2024-01-15T05:48:08;6.38;;;1.60;;
72319;SDS011;60269;52.502;16.732;2024-01-15T05:51:40;5.23;;;1.47;;
72319;SDS011;60269;52.502;16.732;2024-01-15T05:55:13;5.68;;;1.42;;
72319;SDS011;60269;52.502;16.732;2024-01-15T05:58:45;4.50;;;1.13;;
72319;SDS011;60269;52.502;16.732;2024-01-15T06:02:17;7.73;;;2.07;;
72319;SDS011;60269;52.502;16.732;2024-01-15T06:05:49;7.47;;;1.10;;
72319;SDS011;60269;52.502;16.732;2024-01-15T06:09:21;7.38;;;1.90;;
72319;SDS011;60269;52.502;16.732;2024-01-15T06:12:53;6.88;;;1.58;;
72319;SDS011;60269;52.502;16.732;2024-01-15T06:16:26;7.03;;;1.37;;
72319;SDS011;60269;52.502;16.732;2024-01-15T06:19:58;7.47;;;2.13;;
72319;SDS011;60269;52.502;16.732;2024-01-15T06:23:30;5.28;;;1.05;;
72319;SDS011;60269;52.502;16.732;2024-01-15T06:27:04;6.37;;;1.40;;
72319;SDS011;60269;52.502;16.732;2024-01-15T06:30:36;9.75;;;1.88;;
72319;SDS011;60269;52.502;16.732;2024-01-15T06:34:08;6.03;;;1.88;;
72319;SDS011;60269;52.502;16.732;2024-01-15T06:37:41;6.13;;;1.40;;
72319;SDS011;60269;52.502;16.732;2024-01-15T06:41:13;7.32;;;1.40;;
72319;SDS011;60269;52.502;16.732;2024-01-15T06:44:45;8.23;;;1.55;;
72319;SDS011;60269;52.502;16.732;2024-01-15T06:48:17;8.18;;;2.63;;
72319;SDS011;60269;52.502;16.732;2024-01-15T06:51:49;6.30;;;1.57;;
72319;SDS011;60269;52.502;16.732;2024-01-15T06:55:21;7.10;;;1.48;;
72319;SDS011;60269;52.502;16.732;2024-01-15T06:58:53;8.32;;;1.77;;
72319;SDS011;60269;52.502;16.732;2024-01-15T07:02:25;13.50;;;2.77;;
72319;SDS011;60269;52.502;16.732;2024-01-15T07:05:58;11.48;;;2.38;;
72319;SDS011;60269;52.502;16.732;2024-01-15T07:09:31;9.25;;;1.65;;
72319;SDS011;60269;52.502;16.732;2024-01-15T07:13:03;6.30;;;1.00;;
72319;SDS011;60269;52.502;16.732;2024-01-15T07:16:37;4.55;;;0.98;;
72319;SDS011;60269;52.502;16.732;2024-01-15T07:20:10;6.78;;;1.40;;
72319;SDS011;60269;52.502;16.732;2024-01-15T07:23:43;7.95;;;1.52;;
72319;SDS011;60269;52.502;16.732;2024-01-15T07:27:15;5.47;;;1.40;;
72319;SDS011;60269;52.502;16.732;2024-01-15T07:30:47;8.02;;;1.95;;
72319;SDS011;60269;52.502;16.732;2024-01-15T07:34:20;12.18;;;2.03;;
72319;SDS011;60269;52.502;16.732;2024-01-15T07:37:52;7.87;;;1.80;;
72319;SDS011;60269;52.502;16.732;2024-01-15T07:41:24;7.78;;;1.83;;
72319;SDS011;60269;52.502;16.732;2024-01-15T07:44:56;8.02;;;1.42;;
72319;SDS011;60269;52.502;16.732;2024-01-15T07:48:28;4.83;;;1.03;;
72319;SDS011;60269;52.502;16.732;2024-01-15T07:52:00;8.00;;;1.55;;
72319;SDS011;60269;52.502;16.732;2024-01-15T07:55:32;6.53;;;1.08;;
72319;SDS011;60269;52.502;16.732;2024-01-15T07:59:04;9.82;;;2.35;;
72319;SDS011;60269;52.502;16.732;2024-01-15T08:02:36;9.20;;;1.37;;
72319;SDS011;60269;52.502;16.732;2024-01-15T08:06:09;7.13;;;1.50;;
72319;SDS011;60269;52.502;16.732;2024-01-15T08:09:41;11.82;;;2.88;;
72319;SDS011;60269;52.502;16.732;2024-01-15T08:13:14;9.90;;;2.13;;
72319;SDS011;60269;52.502;16.732;2024-01-15T08:16:46;8.68;;;2.65;;
72319;SDS011;60269;52.502;16.732;2024-01-15T08:20:18;9.98;;;1.88;;
72319;SDS011;60269;52.502;16.732;2024-01-15T08:23:50;9.30;;;2.37;;
72319;SDS011;60269;52.502;16.732;2024-01-15T08:27:22;7.97;;;2.40;;
72319;SDS011;60269;52.502;16.732;2024-01-15T08:30:54;9.38;;;2.15;;
72319;SDS011;60269;52.502;16.732;2024-01-15T08:34:26;7.57;;;2.08;;
72319;SDS011;60269;52.502;16.732;2024-01-15T08:38:02;7.20;;;2.23;;
72319;SDS011;60269;52.502;16.732;2024-01-15T08:41:34;6.40;;;1.60;;
72319;SDS011;60269;52.502;16.732;2024-01-15T08:45:07;8.32;;;1.38;;
72319;SDS011;60269;52.502;16.732;2024-01-15T08:48:40;4.23;;;0.73;;
72319;SDS011;60269;52.502;16.732;2024-01-15T08:52:13;9.13;;;1.98;;
72319;SDS011;60269;52.502;16.732;2024-01-15T08:55:45;9.43;;;1.52;;
72319;SDS011;60269;52.502;16.732;2024-01-15T08:59:18;7.17;;;1.60;;
72319;SDS011;60269;52.502;16.732;2024-01-15T09:02:56;7.43;;;1.40;;
72319;SDS011;60269;52.502;16.732;2024-01-15T09:06:28;6.78;;;1.63;;
72319;SDS011;60269;52.502;16.732;2024-01-15T09:10:03;7.22;;;1.35;;
72319;SDS011;60269;52.502;16.732;2024-01-15T09:13:35;8.03;;;1.60;;
72319;SDS011;60269;52.502;16.732;2024-01-15T09:17:08;3.92;;;0.95;;
72319;SDS011;60269;52.502;16.732;2024-01-15T09:20:40;8.77;;;1.77;;
72319;SDS011;60269;52.502;16.732;2024-01-15T09:24:12;5.50;;;1.20;;
72319;SDS011;60269;52.502;16.732;2024-01-15T09:27:44;8.85;;;1.00;;
72319;SDS011;60269;52.502;16.732;2024-01-15T09:31:16;6.30;;;0.98;;
72319;SDS011;60269;52.502;16.732;2024-01-15T09:34:51;5.33;;;0.80;;
72319;SDS011;60269;52.502;16.732;2024-01-15T09:38:24;5.40;;;1.05;;
72319;SDS011;60269;52.502;16.732;2024-01-15T09:41:56;6.85;;;1.65;;
72319;SDS011;60269;52.502;16.732;2024-01-15T09:45:29;4.95;;;1.23;;
72319;SDS011;60269;52.502;16.732;2024-01-15T09:49:02;5.67;;;1.20;;
72319;SDS011;60269;52.502;16.732;2024-01-15T09:52:34;7.53;;;1.27;;
72319;SDS011;60269;52.502;16.732;2024-01-15T09:56:08;8.23;;;1.35;;
72319;SDS011;60269;52.502;16.732;2024-01-15T09:59:41;5.80;;;0.97;;
72319;SDS011;60269;52.502;16.732;2024-01-15T10:03:15;5.80;;;1.48;;
72319;SDS011;60269;52.502;16.732;2024-01-15T10:06:47;10.63;;;1.95;;
72319;SDS011;60269;52.502;16.732;2024-01-15T10:10:23;3.77;;;0.80;;
72319;SDS011;60269;52.502;16.732;2024-01-15T10:13:55;8.65;;;1.33;;
72319;SDS011;60269;52.502;16.732;2024-01-15T10:17:29;2.40;;;0.60;;
72319;SDS011;60269;52.502;16.732;2024-01-15T10:21:03;6.85;;;0.80;;
72319;SDS011;60269;52.502;16.732;2024-01-15T10:24:36;4.90;;;1.07;;
72319;SDS011;60269;52.502;16.732;2024-01-15T10:28:09;4.28;;;0.98;;
72319;SDS011;60269;52.502;16.732;2024-01-15T10:31:41;4.22;;;0.90;;
72319;SDS011;60269;52.502;16.732;2024-01-15T10:35:14;5.63;;;0.90;;
72319;SDS011;60269;52.502;16.732;2024-01-15T10:38:47;7.03;;;0.80;;
72319;SDS011;60269;52.502;16.732;2024-01-15T10:42:19;5.78;;;1.00;;
72319;SDS011;60269;52.502;16.732;2024-01-15T10:45:51;9.60;;;1.27;;
72319;SDS011;60269;52.502;16.732;2024-01-15T10:49:23;4.82;;;1.10;;
72319;SDS011;60269;52.502;16.732;2024-01-15T10:53:03;4.65;;;0.73;;
72319;SDS011;60269;52.502;16.732;2024-01-15T10:56:36;3.88;;;0.65;;
72319;SDS011;60269;52.502;16.732;2024-01-15T11:00:09;6.13;;;0.70;;
72319;SDS011;60269;52.502;16.732;2024-01-15T11:03:47;7.75;;;1.60;;
72319;SDS011;60269;52.502;16.732;2024-01-15T11:07:21;7.05;;;0.98;;
72319;SDS011;60269;52.502;16.732;2024-01-15T11:10:59;6.43;;;0.67;;
72319;SDS011;60269;52.502;16.732;2024-01-15T11:14:38;6.57;;;1.15;;
72319;SDS011;60269;52.502;16.732;2024-01-15T11:18:20;11.05;;;1.20;;
72319;SDS011;60269;52.502;16.732;2024-01-15T11:21:54;7.47;;;0.80;;
72319;SDS011;60269;52.502;16.732;2024-01-15T11:25:33;5.95;;;1.05;;
72319;SDS011;60269;52.502;16.732;2024-01-15T11:29:10;13.68;;;1.40;;
72319;SDS011;60269;52.502;16.732;2024-01-15T11:33:02;5.13;;;0.80;;
72319;SDS011;60269;52.502;16.732;2024-01-15T11:44:07;10.15;;;1.10;;
72319;SDS011;60269;52.502;16.732;2024-01-15T11:51:23;5.18;;;1.00;;
72319;SDS011;60269;52.502;16.732;2024-01-15T11:58:30;6.67;;;0.97;;
72319;SDS011;60269;52.502;16.732;2024-01-15T12:02:03;4.35;;;0.70;;
72319;SDS011;60269;52.502;16.732;2024-01-15T12:05:36;4.28;;;0.80;;
72319;SDS011;60269;52.502;16.732;2024-01-15T12:09:10;7.90;;;0.80;;
72319;SDS011;60269;52.502;16.732;2024-01-15T12:16:14;7.18;;;0.73;;
72319;SDS011;60269;52.502;16.732;2024-01-15T12:19:46;5.88;;;0.70;;
72319;SDS011;60269;52.502;16.732;2024-01-15T12:23:19;6.27;;;0.90;;
72319;SDS011;60269;52.502;16.732;2024-01-15T12:26:51;9.20;;;1.17;;
72319;SDS011;60269;52.502;16.732;2024-01-15T12:30:24;3.50;;;0.88;;
72319;SDS011;60269;52.502;16.732;2024-01-15T12:33:58;8.00;;;0.80;;
72319;SDS011;60269;52.502;16.732;2024-01-15T12:37:30;3.42;;;0.70;;
72319;SDS011;60269;52.502;16.732;2024-01-15T12:41:02;2.28;;;0.30;;
72319;SDS011;60269;52.502;16.732;2024-01-15T12:44:34;1.92;;;0.10;;
72319;SDS011;60269;52.502;16.732;2024-01-15T12:48:07;1.33;;;0.10;;
72319;SDS011;60269;52.502;16.732;2024-01-15T12:51:39;7.32;;;0.45;;
72319;SDS011;60269;52.502;16.732;2024-01-15T12:55:13;2.80;;;0.20;;
72319;SDS011;60269;52.502;16.732;2024-01-15T12:58:45;2.80;;;0.27;;
72319;SDS011;60269;52.502;16.732;2024-01-15T13:02:17;3.22;;;0.50;;
72319;SDS011;60269;52.502;16.732;2024-01-15T13:05:49;5.60;;;0.70;;
72319;SDS011;60269;52.502;16.732;2024-01-15T13:09:23;1.90;;;0.33;;
72319;SDS011;60269;52.502;16.732;2024-01-15T13:12:55;3.42;;;0.40;;
72319;SDS011;60269;52.502;16.732;2024-01-15T13:16:27;2.88;;;0.40;;
72319;SDS011;60269;52.502;16.732;2024-01-15T13:20:00;2.47;;;0.15;;
72319;SDS011;60269;52.502;16.732;2024-01-15T13:23:32;2.07;;;0.20;;
72319;SDS011;60269;52.502;16.732;2024-01-15T13:27:05;1.83;;;0.13;;
72319;SDS011;60269;52.502;16.732;2024-01-15T13:30:37;2.53;;;0.13;;
72319;SDS011;60269;52.502;16.732;2024-01-15T13:34:09;0.77;;;0.10;;
72319;SDS011;60269;52.502;16.732;2024-01-15T13:37:42;1.67;;;0.25;;
72319;SDS011;60269;52.502;16.732;2024-01-15T13:41:14;1.67;;;0.10;;
72319;SDS011;60269;52.502;16.732;2024-01-15T13:44:47;2.33;;;0.20;;
72319;SDS011;60269;52.502;16.732;2024-01-15T13:48:19;2.30;;;0.28;;
72319;SDS011;60269;52.502;16.732;2024-01-15T13:51:51;3.58;;;0.43;;
72319;SDS011;60269;52.502;16.732;2024-01-15T13:55:23;4.70;;;0.30;;
72319;SDS011;60269;52.502;16.732;2024-01-15T13:58:56;4.23;;;0.50;;
72319;SDS011;60269;52.502;16.732;2024-01-15T14:02:28;3.47;;;0.40;;
72319;SDS011;60269;52.502;16.732;2024-01-15T14:06:00;7.28;;;0.68;;
72319;SDS011;60269;52.502;16.732;2024-01-15T14:09:35;7.37;;;0.80;;
72319;SDS011;60269;52.502;16.732;2024-01-15T14:13:07;3.92;;;0.55;;
72319;SDS011;60269;52.502;16.732;2024-01-15T14:16:40;3.67;;;0.50;;
72319;SDS011;60269;52.502;16.732;2024-01-15T14:20:14;4.17;;;0.47;;
72319;SDS011;60269;52.502;16.732;2024-01-15T14:23:47;4.28;;;0.95;;
72319;SDS011;60269;52.502;16.732;2024-01-15T14:27:19;2.28;;;0.30;;
72319;SDS011;60269;52.502;16.732;2024-01-15T14:30:52;4.53;;;0.40;;
72319;SDS011;60269;52.502;16.732;2024-01-15T14:34:24;4.10;;;0.40;;
72319;SDS011;60269;52.502;16.732;2024-01-15T14:37:58;2.08;;;0.30;;
72319;SDS011;60269;52.502;16.732;2024-01-15T14:41:30;1.15;;;0.20;;
72319;SDS011;60269;52.502;16.732;2024-01-15T14:45:03;3.13;;;0.33;;
72319;SDS011;60269;52.502;16.732;2024-01-15T14:48:44;2.10;;;0.30;;
72319;SDS011;60269;52.502;16.732;2024-01-15T14:52:17;6.40;;;0.38;;
72319;SDS011;60269;52.502;16.732;2024-01-15T14:55:49;3.27;;;0.67;;
72319;SDS011;60269;52.502;16.732;2024-01-15T14:59:22;4.70;;;0.60;;
72319;SDS011;60269;52.502;16.732;2024-01-15T15:02:54;3.97;;;0.30;;
72319;SDS011;60269;52.502;16.732;2024-01-15T15:06:26;2.88;;;0.40;;
72319;SDS011;60269;52.502;16.732;2024-01-15T15:10:00;3.17;;;0.50;;
72319;SDS011;60269;52.502;16.732;2024-01-15T15:13:32;3.85;;;0.50;;
72319;SDS011;60269;52.502;16.732;2024-01-15T15:17:16;5.60;;;0.73;;
72319;SDS011;60269;52.502;16.732;2024-01-15T15:20:48;5.77;;;0.97;;
72319;SDS011;60269;52.502;16.732;2024-01-15T15:24:21;3.63;;;0.60;;
72319;SDS011;60269;52.502;16.732;2024-01-15T15:27:53;4.63;;;0.43;;
72319;SDS011;60269;52.502;16.732;2024-01-15T15:31:25;3.77;;;0.67;;
72319;SDS011;60269;52.502;16.732;2024-01-15T15:34:57;6.13;;;0.95;;
72319;SDS011;60269;52.502;16.732;2024-01-15T15:38:30;3.33;;;0.60;;
72319;SDS011;60269;52.502;16.732;2024-01-15T15:42:03;5.25;;;0.88;;
72319;SDS011;60269;52.502;16.732;2024-01-15T15:45:35;2.70;;;0.40;;
72319;SDS011;60269;52.502;16.732;2024-01-15T15:49:07;3.80;;;0.70;;
72319;SDS011;60269;52.502;16.732;2024-01-15T15:52:39;3.17;;;0.45;;
72319;SDS011;60269;52.502;16.732;2024-01-15T15:56:11;2.20;;;0.40;;
72319;SDS011;60269;52.502;16.732;2024-01-15T15:59:44;2.65;;;0.30;;
72319;SDS011;60269;52.502;16.732;2024-01-15T16:03:16;5.10;;;0.65;;
72319;SDS011;60269;52.502;16.732;2024-01-15T16:06:48;5.60;;;0.67;;
72319;SDS011;60269;52.502;16.732;2024-01-15T16:10:20;4.28;;;0.60;;
72319;SDS011;60269;52.502;16.732;2024-01-15T16:13:53;6.72;;;0.60;;
72319;SDS011;60269;52.502;16.732;2024-01-15T16:17:25;2.63;;;0.38;;
72319;SDS011;60269;52.502;16.732;2024-01-15T16:21:17;2.37;;;0.30;;
72319;SDS011;60269;52.502;16.732;2024-01-15T16:25:09;4.68;;;0.40;;
72319;SDS011;60269;52.502;16.732;2024-01-15T16:28:42;4.30;;;0.28;;
72319;SDS011;60269;52.502;16.732;2024-01-15T16:32:14;4.13;;;0.60;;
72319;SDS011;60269;52.502;16.732;2024-01-15T16:35:47;3.33;;;0.47;;
72319;SDS011;60269;52.502;16.732;2024-01-15T16:39:19;4.30;;;0.40;;
72319;SDS011;60269;52.502;16.732;2024-01-15T16:42:51;6.70;;;0.90;;
72319;SDS011;60269;52.502;16.732;2024-01-15T16:46:23;4.15;;;0.50;;
72319;SDS011;60269;52.502;16.732;2024-01-15T16:49:56;2.67;;;0.40;;
72319;SDS011;60269;52.502;16.732;2024-01-15T16:53:29;10.73;;;1.52;;
72319;SDS011;60269;52.502;16.732;2024-01-15T16:57:01;4.87;;;0.63;;
72319;SDS011;60269;52.502;16.732;2024-01-15T17:00:34;4.70;;;0.75;;
72319;SDS011;60269;52.502;16.732;2024-01-15T17:04:06;7.15;;;0.65;;
72319;SDS011;60269;52.502;16.732;2024-01-15T17:07:38;4.47;;;1.00;;
72319;SDS011;60269;52.502;16.732;2024-01-15T17:11:10;6.45;;;0.80;;
72319;SDS011;60269;52.502;16.732;2024-01-15T17:14:42;4.90;;;0.50;;
72319;SDS011;60269;52.502;16.732;2024-01-15T17:18:14;13.57;;;3.27;;
72319;SDS011;60269;52.502;16.732;2024-01-15T17:21:47;15.55;;;4.40;;
72319;SDS011;60269;52.502;16.732;2024-01-15T17:25:20;6.32;;;1.15;;
72319;SDS011;60269;52.502;16.732;2024-01-15T17:28:52;6.35;;;1.63;;
72319;SDS011;60269;52.502;16.732;2024-01-15T17:32:24;3.33;;;1.00;;
72319;SDS011;60269;52.502;16.732;2024-01-15T17:35:56;9.18;;;2.45;;
72319;SDS011;60269;52.502;16.732;2024-01-15T17:39:29;5.63;;;1.20;;
72319;SDS011;60269;52.502;16.732;2024-01-15T17:43:02;4.03;;;0.50;;
72319;SDS011;60269;52.502;16.732;2024-01-15T17:46:36;2.92;;;0.75;;
72319;SDS011;60269;52.502;16.732;2024-01-15T17:50:08;1.83;;;0.40;;
72319;SDS011;60269;52.502;16.732;2024-01-15T17:53:41;2.73;;;0.50;;
72319;SDS011;60269;52.502;16.732;2024-01-15T17:57:13;2.97;;;0.50;;
72319;SDS011;60269;52.502;16.732;2024-01-15T18:00:45;2.15;;;0.40;;
72319;SDS011;60269;52.502;16.732;2024-01-15T18:04:17;2.67;;;0.30;;
72319;SDS011;60269;52.502;16.732;2024-01-15T18:07:52;4.20;;;0.70;;
72319;SDS011;60269;52.502;16.732;2024-01-15T18:11:24;2.92;;;0.38;;
72319;SDS011;60269;52.502;16.732;2024-01-15T18:14:56;3.42;;;0.30;;
72319;SDS011;60269;52.502;16.732;2024-01-15T18:18:29;3.53;;;0.57;;
72319;SDS011;60269;52.502;16.732;2024-01-15T18:22:01;5.13;;;1.45;;
72319;SDS011;60269;52.502;16.732;2024-01-15T18:25:35;4.03;;;1.00;;
72319;SDS011;60269;52.502;16.732;2024-01-15T18:29:07;8.13;;;1.30;;
72319;SDS011;60269;52.502;16.732;2024-01-15T18:32:39;3.78;;;0.17;;
72319;SDS011;60269;52.502;16.732;2024-01-15T18:36:11;4.22;;;0.63;;
72319;SDS011;60269;52.502;16.732;2024-01-15T18:39:44;4.00;;;1.10;;
72319;SDS011;60269;52.502;16.732;2024-01-15T18:43:16;2.73;;;0.57;;
72319;SDS011;60269;52.502;16.732;2024-01-15T18:46:48;1.75;;;0.60;;
72319;SDS011;60269;52.502;16.732;2024-01-15T18:50:20;2.10;;;0.30;;
72319;SDS011;60269;52.502;16.732;2024-01-15T18:53:53;1.77;;;0.23;;
72319;SDS011;60269;52.502;16.732;2024-01-15T18:57:25;3.90;;;0.73;;
72319;SDS011;60269;52.502;16.732;2024-01-15T19:00:58;2.60;;;0.40;;
72319;SDS011;60269;52.502;16.732;2024-01-15T19:04:31;6.07;;;1.10;;
72319;SDS011;60269;52.502;16.732;2024-01-15T19:08:03;5.55;;;0.65;;
72319;SDS011;60269;52.502;16.732;2024-01-15T19:11:35;8.70;;;0.80;;
72319;SDS011;60269;52.502;16.732;2024-01-15T19:15:08;5.90;;;1.00;;
72319;SDS011;60269;52.502;16.732;2024-01-15T19:18:41;9.33;;;2.07;;
72319;SDS011;60269;52.502;16.732;2024-01-15T19:22:13;5.05;;;0.65;;
72319;SDS011;60269;52.502;16.732;2024-01-15T19:25:46;6.03;;;0.93;;
72319;SDS011;60269;52.502;16.732;2024-01-15T19:29:18;2.53;;;0.67;;
72319;SDS011;60269;52.502;16.732;2024-01-15T19:32:51;1.63;;;0.22;;
72319;SDS011;60269;52.502;16.732;2024-01-15T19:36:24;3.75;;;0.30;;
72319;SDS011;60269;52.502;16.732;2024-01-15T19:39:58;2.03;;;0.37;;
72319;SDS011;60269;52.502;16.732;2024-01-15T19:43:30;2.20;;;0.22;;
72319;SDS011;60269;52.502;16.732;2024-01-15T19:47:03;6.07;;;1.58;;
72319;SDS011;60269;52.502;16.732;2024-01-15T19:50:35;2.22;;;0.20;;
72319;SDS011;60269;52.502;16.732;2024-01-15T19:54:07;3.47;;;0.40;;
72319;SDS011;60269;52.502;16.732;2024-01-15T19:57:39;4.82;;;0.75;;
72319;SDS011;60269;52.502;16.732;2024-01-15T20:01:11;6.68;;;0.80;;
72319;SDS011;60269;52.502;16.732;2024-01-15T20:04:44;2.73;;;0.40;;
72319;SDS011;60269;52.502;16.732;2024-01-15T20:08:16;6.20;;;0.50;;
72319;SDS011;60269;52.502;16.732;2024-01-15T20:11:48;2.95;;;0.47;;
72319;SDS011;60269;52.502;16.732;2024-01-15T20:15:20;4.37;;;0.90;;
72319;SDS011;60269;52.502;16.732;2024-01-15T20:18:52;6.20;;;1.15;;
72319;SDS011;60269;52.502;16.732;2024-01-15T20:22:25;9.00;;;1.45;;
72319;SDS011;60269;52.502;16.732;2024-01-15T20:25:57;6.25;;;1.13;;
72319;SDS011;60269;52.502;16.732;2024-01-15T20:29:29;2.83;;;0.30;;
72319;SDS011;60269;52.502;16.732;2024-01-15T20:33:01;4.10;;;0.52;;
72319;SDS011;60269;52.502;16.732;2024-01-15T20:36:34;6.32;;;1.08;;
72319;SDS011;60269;52.502;16.732;2024-01-15T20:40:06;2.43;;;0.40;;
72319;SDS011;60269;52.502;16.732;2024-01-15T20:43:39;6.88;;;1.27;;
72319;SDS011;60269;52.502;16.732;2024-01-15T20:47:11;4.28;;;0.50;;
72319;SDS011;60269;52.502;16.732;2024-01-15T20:50:43;4.73;;;0.70;;
72319;SDS011;60269;52.502;16.732;2024-01-15T20:54:15;3.10;;;0.50;;
72319;SDS011;60269;52.502;16.732;2024-01-15T20:57:47;6.88;;;0.73;;
72319;SDS011;60269;52.502;16.732;2024-01-15T21:01:19;4.32;;;0.85;;
72319;SDS011;60269;52.502;16.732;2024-01-15T21:04:51;1.50;;;0.20;;
72319;SDS011;60269;52.502;16.732;2024-01-15T21:08:23;4.72;;;0.70;;
72319;SDS011;60269;52.502;16.732;2024-01-15T21:11:56;2.58;;;0.43;;
72319;SDS011;60269;52.502;16.732;2024-01-15T21:15:28;5.70;;;0.93;;